createdAt,value
2023-02-22T06:19:17.547Z,5.02
2023-02-22T06:29:17.521Z,4.94
2023-02-22T06:39:17.485Z,5.14
2023-02-22T06:49:17.385Z,5.31
2023-02-22T06:59:17.561Z,5.16
2023-02-22T07:09:17.553Z,5.38
2023-02-22T07:19:17.472Z,5.62
2023-02-22T07:29:17.528Z,5.96
2023-02-22T07:39:17.575Z,6.09
2023-02-22T07:49:17.395Z,6.46
2023-02-22T07:59:17.716Z,6.64
2023-02-22T08:09:17.695Z,6.98
2023-02-22T08:19:17.576Z,7.27
2023-02-22T08:29:17.558Z,7.77
2023-02-22T08:39:17.669Z,8.18
2023-02-22T08:49:17.873Z,8.44
2023-02-22T08:59:17.884Z,9.02
2023-02-22T09:09:17.970Z,9.01
2023-02-22T09:19:18.220Z,9.12
2023-02-22T09:29:18.089Z,9.34
2023-02-22T09:39:18.163Z,9.39
2023-02-22T09:49:18.012Z,9.43
2023-02-22T09:59:18.189Z,9.72
2023-02-22T10:09:18.152Z,9.90
2023-02-22T10:19:18.211Z,10.15
2023-02-22T10:29:17.828Z,10.07
2023-02-22T10:39:18.080Z,10.31
2023-02-22T10:49:18.126Z,10.64
2023-02-22T10:59:18.080Z,10.60
2023-02-22T11:09:18.168Z,10.73
2023-02-22T11:19:18.357Z,11.04
2023-02-22T11:29:18.166Z,11.20
2023-02-22T11:39:18.174Z,11.07
2023-02-22T11:49:18.139Z,11.45
2023-02-22T11:59:18.362Z,11.78
2023-02-22T12:09:18.232Z,11.87
2023-02-22T12:19:18.149Z,11.91
2023-02-22T12:29:18.169Z,12.36
2023-02-22T12:39:18.116Z,12.17
2023-02-22T12:49:18.293Z,12.39
2023-02-22T12:59:18.221Z,12.48
2023-02-22T13:09:18.215Z,12.48
2023-02-22T13:19:18.386Z,12.60
2023-02-22T13:29:18.188Z,12.62
2023-02-22T13:39:18.082Z,12.60
2023-02-22T13:49:18.190Z,12.61
2023-02-22T13:59:18.192Z,12.70
2023-02-22T14:09:18.056Z,12.79
2023-02-22T14:19:18.169Z,12.81
2023-02-22T14:29:19.115Z,12.92
2023-02-22T14:39:18.028Z,12.96
2023-02-22T14:49:18.104Z,12.96
2023-02-22T14:59:18.132Z,12.95
2023-02-22T15:09:18.270Z,12.95
2023-02-22T15:19:18.198Z,12.86
2023-02-22T15:29:18.314Z,12.76
2023-02-22T15:39:18.123Z,12.67
2023-02-22T15:49:18.247Z,12.48
2023-02-22T15:59:18.358Z,12.38
2023-02-22T16:09:18.093Z,12.19
2023-02-22T16:19:18.175Z,12.08
2023-02-22T16:29:18.527Z,11.68
2023-02-22T16:39:18.385Z,11.33
2023-02-22T16:49:18.229Z,11.12
2023-02-22T16:59:18.286Z,10.90
2023-02-22T17:09:18.336Z,10.78
2023-02-22T17:19:18.201Z,10.68
2023-02-22T17:29:18.384Z,10.59
2023-02-22T17:39:18.393Z,10.31
2023-02-22T17:49:18.420Z,10.23
2023-02-22T17:59:18.394Z,10.16
2023-02-22T18:09:18.265Z,9.81
2023-02-22T18:19:18.533Z,9.42
2023-02-22T18:29:18.461Z,9.42
2023-02-22T18:39:18.322Z,9.34
2023-02-22T18:49:18.376Z,9.17
2023-02-22T18:59:18.676Z,9.06
2023-02-22T19:09:18.736Z,8.98
2023-02-22T19:19:18.902Z,8.89
